createdAt,value
2019-04-16T00:02:18.882Z,16.57
2019-04-16T00:05:10.435Z,16.87
2019-04-16T00:07:53.522Z,16.97
2019-04-16T00:10:52.093Z,17.60
2019-04-16T00:13:28.967Z,18.13
2019-04-16T00:16:00.130Z,18.43
2019-04-16T00:18:30.613Z,18.13
2019-04-16T00:21:26.054Z,17.87
2019-04-16T00:24:18.278Z,18.90
2019-04-16T00:26:48.973Z,18.50
2019-04-16T00:29:19.437Z,18.37
2019-04-16T00:31:55.730Z,17.80
2019-04-16T00:34:26.449Z,17.87
2019-04-16T00:36:57.182Z,20.50
2019-04-16T00:39:27.613Z,20.13
2019-04-16T00:41:58.513Z,20.13
2019-04-16T00:44:28.965Z,17.50
2019-04-16T00:46:59.388Z,18.17
2019-04-16T00:49:29.822Z,18.03
2019-04-16T00:52:00.245Z,18.87
2019-04-16T00:54:30.672Z,17.47
2019-04-16T00:57:01.097Z,16.07
2019-04-16T00:59:31.526Z,18.67
2019-04-16T01:02:01.966Z,16.60
2019-04-16T01:04:32.380Z,18.07
2019-04-16T01:07:03.011Z,17.07
2019-04-16T01:09:33.677Z,17.10
2019-04-16T01:12:04.126Z,17.03
2019-04-16T01:14:34.600Z,16.43
2019-04-16T01:17:06.273Z,17.77
2019-04-16T01:19:38.257Z,17.03
2019-04-16T01:22:09.375Z,17.13
2019-04-16T01:24:39.801Z,16.77
2019-04-16T01:27:10.218Z,18.10
2019-04-16T01:29:40.647Z,17.17
2019-04-16T01:32:33.209Z,17.57
2019-04-16T01:35:37.728Z,17.37
2019-04-16T01:38:28.056Z,18.33
2019-04-16T01:41:04.027Z,17.90
2019-04-16T01:43:34.774Z,16.60
2019-04-16T01:46:05.240Z,17.07
2019-04-16T01:48:38.694Z,17.10
2019-04-16T01:51:07.836Z,16.77
2019-04-16T01:53:38.472Z,17.67
2019-04-16T01:56:08.943Z,16.77
2019-04-16T01:58:39.423Z,17.63
2019-04-16T02:01:11.190Z,18.37
2019-04-16T02:03:42.021Z,18.40
2019-04-16T02:06:12.466Z,17.53
2019-04-16T02:08:42.878Z,17.80
2019-04-16T02:11:13.495Z,18.37
2019-04-16T02:13:46.081Z,18.00
2019-04-16T02:16:16.103Z,18.43
2019-04-16T02:18:46.526Z,18.23
2019-04-16T02:21:16.953Z,17.93
2019-04-16T02:23:48.141Z,16.70
2019-04-16T02:26:20.501Z,18.57
2019-04-16T02:28:51.208Z,18.17
2019-04-16T02:31:22.655Z,17.77
2019-04-16T02:33:53.082Z,18.37
2019-04-16T02:36:26.789Z,18.33
2019-04-16T02:38:57.363Z,16.67
2019-04-16T02:41:27.844Z,18.63
2019-04-16T02:43:58.323Z,16.57
2019-04-16T02:46:32.426Z,15.87
2019-04-16T02:49:00.865Z,15.83
2019-04-16T02:51:41.198Z,14.70
2019-04-16T02:54:21.478Z,15.53
2019-04-16T02:57:29.085Z,14.40
2019-04-16T03:00:03.706Z,13.80
2019-04-16T03:02:53.871Z,13.80
2019-04-16T03:05:31.391Z,12.73
2019-04-16T03:08:04.624Z,12.70
2019-04-16T03:10:36.751Z,11.57
2019-04-16T03:13:07.280Z,11.43
2019-04-16T03:15:57.049Z,11.83
2019-04-16T03:18:33.529Z,10.87
2019-04-16T03:21:05.392Z,10.67
2019-04-16T03:23:37.512Z,10.30
2019-04-16T03:26:07.974Z,11.10
2019-04-16T03:28:39.639Z,9.73
2019-04-16T03:31:19.423Z,9.70
2019-04-16T03:33:48.566Z,9.77
2019-04-16T03:36:14.394Z,9.50
2019-04-16T03:38:45.043Z,8.33
2019-04-16T03:41:15.467Z,8.70
2019-04-16T03:43:45.880Z,9.20
2019-04-16T03:46:16.549Z,8.00
2019-04-16T03:48:47.048Z,7.43
2019-04-16T03:51:17.484Z,7.37
2019-04-16T03:53:49.598Z,8.13
2019-04-16T03:56:19.972Z,7.83
2019-04-16T03:58:50.398Z,6.93
2019-04-16T04:01:21.850Z,8.43
2019-04-16T04:03:54.427Z,7.50
2019-04-16T04:06:24.339Z,7.77
2019-04-16T04:08:54.767Z,7.10
2019-04-16T04:11:25.182Z,7.17
2019-04-16T04:13:55.814Z,8.07
2019-04-16T04:16:26.355Z,7.87
2019-04-16T04:18:56.827Z,7.63
2019-04-16T04:21:27.309Z,9.23
2019-04-16T04:24:00.700Z,7.77
2019-04-16T04:26:29.804Z,8.63
2019-04-16T04:29:00.438Z,8.30
2019-04-16T04:31:33.027Z,8.53
2019-04-16T04:34:03.634Z,8.33
2019-04-16T04:36:34.262Z,8.33
2019-04-16T04:39:09.953Z,8.27
2019-04-16T04:41:38.817Z,8.97
2019-04-16T04:44:09.432Z,9.33
2019-04-16T04:46:39.876Z,8.20
2019-04-16T04:49:10.406Z,8.33
2019-04-16T04:51:43.422Z,7.80
2019-04-16T04:54:12.898Z,8.97
2019-04-16T04:56:43.531Z,8.20
2019-04-16T04:59:14.047Z,7.33
2019-04-16T05:01:44.692Z,6.70
2019-04-16T05:04:43.178Z,6.27
2019-04-16T05:07:14.169Z,6.33
2019-04-16T05:09:44.714Z,6.40
2019-04-16T05:12:17.887Z,7.37
2019-04-16T05:14:57.222Z,7.30
2019-04-16T05:17:29.136Z,7.23
2019-04-16T05:19:59.625Z,7.57
2019-04-16T05:22:32.814Z,8.10
2019-04-16T05:25:02.501Z,7.50
2019-04-16T05:27:33.095Z,8.20
2019-04-16T05:30:03.623Z,9.40
2019-04-16T05:32:34.268Z,9.03
2019-04-16T05:35:09.195Z,8.50
2019-04-16T05:38:05.138Z,7.87
2019-04-16T05:40:40.591Z,8.10
2019-04-16T05:43:11.466Z,7.00
2019-04-16T05:45:46.195Z,7.90
2019-04-16T05:48:39.552Z,7.43
2019-04-16T05:51:18.539Z,7.93
2019-04-16T05:54:31.199Z,7.80
2019-04-16T05:57:02.793Z,7.53
2019-04-16T05:59:44.644Z,7.77
2019-04-16T06:02:19.990Z,7.43
2019-04-16T06:04:55.589Z,6.97
2019-04-16T06:07:23.745Z,7.60
2019-04-16T06:09:54.346Z,6.97
2019-04-16T06:12:26.917Z,6.40
2019-04-16T06:15:07.511Z,8.00
2019-04-16T06:18:05.358Z,7.13
2019-04-16T06:20:56.606Z,6.27
2019-04-16T06:24:03.547Z,6.50
2019-04-16T06:26:54.702Z,6.17
2019-04-16T06:29:39.158Z,6.03
2019-04-16T06:32:20.134Z,5.40
2019-04-16T06:35:21.585Z,5.60
2019-04-16T06:38:09.627Z,5.53
2019-04-16T06:40:52.444Z,4.30
2019-04-16T06:43:26.150Z,5.70
2019-04-16T06:46:22.073Z,4.87
2019-04-16T06:49:18.675Z,4.30
2019-04-16T06:52:26.620Z,4.67
2019-04-16T06:55:14.661Z,4.83
2019-04-16T06:57:54.507Z,5.23
2019-04-16T07:00:49.318Z,5.03
2019-04-16T07:03:40.213Z,4.77
2019-04-16T07:06:28.153Z,4.93
2019-04-16T07:09:17.586Z,5.53
2019-04-16T07:11:54.734Z,3.67
2019-04-16T07:14:23.599Z,3.97
2019-04-16T07:16:59.875Z,4.10
2019-04-16T07:19:27.436Z,3.90
2019-04-16T07:21:57.847Z,3.47
2019-04-16T07:24:30.793Z,3.67
2019-04-16T07:27:00.544Z,3.27
2019-04-16T07:29:37.714Z,3.97
2019-04-16T07:32:20.875Z,3.07
2019-04-16T07:34:56.423Z,3.30
2019-04-16T07:38:05.402Z,3.00
2019-04-16T07:40:58.902Z,2.73
2019-04-16T07:43:46.636Z,2.90
2019-04-16T07:46:47.158Z,2.70
2019-04-16T07:49:37.153Z,2.77
2019-04-16T07:52:45.264Z,2.10
2019-04-16T07:55:49.795Z,2.40
2019-04-16T07:58:20.422Z,2.00
2019-04-16T08:00:50.866Z,2.12
2019-04-16T08:03:23.618Z,1.87
2019-04-16T08:05:53.349Z,2.00
2019-04-16T08:08:24.644Z,2.08
2019-04-16T08:10:56.094Z,2.60
2019-04-16T08:13:32.971Z,2.37
2019-04-16T08:16:00.196Z,2.15
2019-04-16T08:18:30.595Z,2.52
2019-04-16T08:21:08.983Z,1.92
2019-04-16T08:23:39.609Z,2.85
2019-04-16T08:26:12.879Z,2.20
2019-04-16T08:28:42.648Z,2.47
2019-04-16T08:31:20.449Z,2.83
2019-04-16T08:33:50.873Z,3.10
2019-04-16T08:36:21.305Z,3.12
2019-04-16T08:38:51.831Z,3.20
2019-04-16T08:41:22.409Z,3.73
2019-04-16T08:43:52.892Z,2.83
2019-04-16T08:46:23.427Z,2.67
2019-04-16T08:48:54.432Z,2.50
2019-04-16T08:51:30.728Z,2.33
2019-04-16T08:53:57.155Z,2.22
2019-04-16T08:56:27.830Z,2.05
2019-04-16T08:59:00.982Z,2.00
2019-04-16T09:01:32.075Z,1.98
2019-04-16T09:04:03.110Z,1.77
2019-04-16T09:06:33.810Z,2.02
2019-04-16T09:09:18.096Z,1.82
2019-04-16T09:11:52.489Z,2.20
2019-04-16T09:14:25.772Z,1.77
2019-04-16T09:17:05.376Z,1.57
2019-04-16T09:19:37.341Z,1.62
2019-04-16T09:22:07.795Z,2.17
2019-04-16T09:24:46.515Z,2.15
2019-04-16T09:27:51.453Z,1.87
2019-04-16T09:30:36.732Z,1.62
2019-04-16T09:33:33.609Z,1.52
2019-04-16T09:36:23.154Z,1.50
2019-04-16T09:39:12.727Z,2.00
2019-04-16T09:41:45.863Z,1.70
2019-04-16T09:44:16.336Z,1.32
2019-04-16T09:46:51.160Z,1.80
2019-04-16T09:49:18.974Z,1.70
2019-04-16T09:51:50.403Z,1.50
2019-04-16T09:54:21.644Z,1.98
2019-04-16T09:56:52.066Z,1.62
2019-04-16T09:59:36.484Z,1.50
2019-04-16T10:02:13.195Z,1.42
2019-04-16T10:04:43.610Z,1.47
2019-04-16T10:07:14.059Z,1.80
2019-04-16T10:09:44.481Z,1.50
2019-04-16T10:12:14.901Z,1.55
2019-04-16T10:14:45.498Z,1.75
2019-04-16T10:17:16.160Z,1.50
2019-04-16T10:19:46.615Z,1.87
2019-04-16T10:22:17.020Z,1.60
2019-04-16T10:25:09.021Z,1.52
2019-04-16T10:27:58.426Z,1.32
2019-04-16T10:30:33.254Z,1.45
2019-04-16T10:33:03.794Z,1.42
2019-04-16T10:35:35.558Z,1.50
2019-04-16T10:38:26.026Z,1.30
2019-04-16T10:41:15.542Z,1.30
2019-04-16T10:44:08.083Z,1.40
2019-04-16T10:47:03.575Z,1.50
2019-04-16T10:50:02.112Z,1.25
2019-04-16T10:52:54.583Z,1.30
2019-04-16T10:55:41.106Z,1.20
2019-04-16T10:58:23.002Z,1.82
2019-04-16T11:01:18.637Z,1.30
2019-04-16T11:04:08.594Z,1.32
2019-04-16T11:06:44.565Z,1.75
2019-04-16T11:09:16.015Z,1.42
2019-04-16T11:11:47.809Z,1.52
2019-04-16T11:14:18.429Z,1.40
2019-04-16T11:16:51.011Z,1.80
2019-04-16T11:19:21.643Z,1.50
2019-04-16T11:21:52.038Z,1.70
2019-04-16T11:24:22.469Z,1.50
2019-04-16T11:26:52.892Z,1.37
2019-04-16T11:29:24.348Z,1.40
2019-04-16T11:31:55.020Z,1.35
2019-04-16T11:34:25.565Z,1.20
2019-04-16T11:36:58.421Z,1.45
2019-04-16T11:39:28.119Z,1.40
2019-04-16T11:41:58.631Z,1.45
2019-04-16T11:44:29.238Z,1.20
2019-04-16T11:46:59.686Z,1.75
2019-04-16T11:49:30.126Z,1.50
2019-04-16T11:52:00.540Z,1.62
2019-04-16T11:54:30.969Z,1.62
2019-04-16T11:57:01.394Z,1.27
2019-04-16T11:59:31.829Z,1.07
2019-04-16T12:02:17.792Z,1.22
2019-04-16T12:04:59.231Z,1.10
2019-04-16T12:07:47.653Z,1.12
2019-04-16T12:10:37.034Z,1.40
2019-04-16T12:13:20.355Z,1.55
2019-04-16T12:16:21.269Z,1.92
2019-04-16T12:19:12.616Z,2.00
2019-04-16T12:21:55.755Z,1.57
2019-04-16T12:24:35.374Z,1.40
2019-04-16T12:27:22.317Z,1.07
2019-04-16T12:30:18.953Z,1.30
2019-04-16T12:33:13.995Z,1.27
2019-04-16T12:36:14.648Z,1.20
2019-04-16T12:38:53.788Z,0.88
2019-04-16T12:41:39.725Z,1.27
2019-04-16T12:44:46.823Z,1.10
2019-04-16T12:47:42.038Z,1.27
2019-04-16T12:50:28.986Z,1.20
2019-04-16T12:53:23.550Z,1.30
2019-04-16T12:56:14.642Z,1.30
2019-04-16T12:58:55.888Z,1.10
2019-04-16T13:01:45.261Z,1.00
2019-04-16T13:04:25.834Z,0.98
2019-04-16T13:06:59.753Z,1.10
2019-04-16T13:09:36.202Z,1.30
2019-04-16T13:12:37.654Z,1.22
2019-04-16T13:15:36.242Z,1.05
2019-04-16T13:18:28.685Z,1.45
2019-04-16T13:21:18.159Z,1.50
2019-04-16T13:24:04.446Z,1.02
2019-04-16T13:26:54.853Z,0.85
2019-04-16T13:29:29.489Z,2.62
2019-04-16T13:32:00.021Z,2.60
2019-04-16T13:34:30.436Z,2.40
2019-04-16T13:37:01.087Z,2.30
2019-04-16T13:39:44.702Z,2.22
2019-04-16T13:42:15.249Z,2.35
2019-04-16T13:44:51.088Z,2.20
2019-04-16T13:47:23.168Z,1.87
2019-04-16T13:50:18.872Z,2.15
2019-04-16T13:52:51.943Z,1.95
2019-04-16T13:55:41.694Z,2.80
2019-04-16T13:58:24.047Z,2.30
2019-04-16T14:00:59.389Z,2.40
2019-04-16T14:03:29.827Z,2.05
2019-04-16T14:06:01.827Z,2.08
2019-04-16T14:08:32.311Z,2.15
2019-04-16T14:11:03.759Z,2.27
2019-04-16T14:13:34.186Z,2.40
2019-04-16T14:16:11.715Z,2.87
2019-04-16T14:18:38.922Z,2.25
2019-04-16T14:21:09.357Z,2.70
2019-04-16T14:23:39.990Z,2.90
2019-04-16T14:26:10.421Z,2.27
2019-04-16T14:28:52.068Z,2.52
2019-04-16T14:31:16.373Z,2.22
2019-04-16T14:33:54.809Z,2.30
2019-04-16T14:36:25.295Z,2.33
2019-04-16T14:38:58.735Z,1.87
2019-04-16T14:41:29.333Z,3.25
2019-04-16T14:44:08.088Z,2.83
2019-04-16T14:46:38.614Z,1.92
2019-04-16T14:49:09.042Z,2.35
2019-04-16T14:51:39.468Z,3.30
2019-04-16T14:54:31.915Z,2.02
2019-04-16T14:57:02.390Z,2.70
2019-04-16T14:59:44.964Z,2.70
2019-04-16T15:02:30.943Z,2.60
2019-04-16T15:05:15.473Z,2.25
2019-04-16T15:08:16.547Z,2.33
2019-04-16T15:11:10.015Z,2.90
2019-04-16T15:13:45.766Z,3.00
2019-04-16T15:16:40.871Z,2.50
2019-04-16T15:19:26.044Z,2.30
2019-04-16T15:22:14.757Z,3.22
2019-04-16T15:25:10.725Z,2.22
2019-04-16T15:28:04.499Z,2.35
2019-04-16T15:31:12.100Z,2.65
2019-04-16T15:34:03.211Z,2.17
2019-04-16T15:36:42.444Z,2.15
2019-04-16T15:39:19.936Z,1.98
2019-04-16T15:42:08.180Z,1.92
2019-04-16T15:44:42.009Z,1.90
2019-04-16T15:47:32.154Z,2.95
2019-04-16T15:50:28.001Z,2.30
2019-04-16T15:53:01.307Z,1.92
2019-04-16T15:55:49.342Z,2.37
2019-04-16T15:58:41.474Z,1.82
2019-04-16T16:01:49.274Z,2.20
2019-04-16T16:04:44.685Z,2.72
2019-04-16T16:07:17.923Z,2.60
2019-04-16T16:10:14.304Z,3.33
2019-04-16T16:12:44.731Z,2.43
2019-04-16T16:15:15.372Z,2.70
2019-04-16T16:17:46.986Z,2.00
2019-04-16T16:20:17.760Z,2.55
2019-04-16T16:22:48.191Z,2.62
2019-04-16T16:25:18.794Z,2.58
2019-04-16T16:27:49.257Z,2.72
2019-04-16T16:30:20.909Z,2.37
2019-04-16T16:32:51.537Z,2.77
2019-04-16T16:35:22.950Z,3.30
2019-04-16T16:37:55.054Z,2.43
2019-04-16T16:40:25.796Z,2.77
2019-04-16T16:42:56.333Z,2.60
2019-04-16T16:45:43.349Z,3.20
2019-04-16T16:48:13.935Z,2.80
2019-04-16T16:50:44.779Z,2.97
2019-04-16T16:53:35.811Z,2.97
2019-04-16T16:56:18.016Z,2.70
2019-04-16T16:59:20.598Z,3.53
2019-04-16T17:02:24.919Z,3.30
2019-04-16T17:04:55.775Z,3.00
2019-04-16T17:07:26.186Z,3.00
2019-04-16T17:09:58.040Z,3.50
2019-04-16T17:12:28.473Z,2.97
2019-04-16T17:14:59.045Z,3.20
2019-04-16T17:17:29.526Z,3.23
2019-04-16T17:20:01.082Z,2.50
2019-04-16T17:22:31.639Z,2.63
2019-04-16T17:25:02.141Z,3.33
2019-04-16T17:27:32.669Z,3.07
2019-04-16T17:30:03.403Z,2.27
2019-04-16T17:32:33.828Z,2.40
2019-04-16T17:35:07.022Z,3.10
2019-04-16T17:37:36.832Z,3.03
2019-04-16T17:40:17.602Z,3.80
2019-04-16T17:42:49.259Z,3.30
2019-04-16T17:45:44.883Z,2.70
2019-04-16T17:48:43.157Z,2.77
2019-04-16T17:51:24.034Z,3.13
2019-04-16T17:54:08.452Z,3.43
2019-04-16T17:56:56.542Z,3.17
2019-04-16T17:59:32.654Z,3.37
2019-04-16T18:02:35.471Z,3.33
2019-04-16T18:05:23.690Z,3.00
2019-04-16T18:08:12.471Z,4.13
2019-04-16T18:11:09.972Z,4.43
2019-04-16T18:13:56.324Z,3.47
2019-04-16T18:16:49.984Z,4.17
2019-04-16T18:19:38.767Z,3.50
2019-04-16T18:22:18.702Z,3.60
2019-04-16T18:25:08.089Z,3.70
2019-04-16T18:27:47.320Z,4.10
2019-04-16T18:30:43.655Z,3.87
2019-04-16T18:33:36.927Z,4.13
2019-04-16T18:36:20.654Z,3.67
2019-04-16T18:39:05.131Z,4.33
2019-04-16T18:41:41.738Z,4.30
2019-04-16T18:44:30.166Z,4.00
2019-04-16T18:47:29.245Z,4.00
2019-04-16T18:50:02.551Z,4.23
2019-04-16T18:52:33.029Z,4.37
2019-04-16T18:55:03.566Z,5.33
2019-04-16T18:57:35.594Z,4.90
2019-04-16T19:00:09.852Z,5.50
2019-04-16T19:02:42.158Z,4.93
2019-04-16T19:05:12.703Z,5.03
2019-04-16T19:07:44.146Z,4.67
2019-04-16T19:10:15.762Z,5.17
2019-04-16T19:12:46.253Z,5.47
2019-04-16T19:15:20.953Z,4.80
2019-04-16T19:17:51.529Z,4.20
2019-04-16T19:20:22.194Z,4.67
2019-04-16T19:22:52.993Z,4.57
2019-04-16T19:25:23.619Z,4.53
2019-04-16T19:27:54.314Z,5.10
2019-04-16T19:30:25.288Z,4.17
2019-04-16T19:33:00.172Z,4.50
2019-04-16T19:35:28.486Z,4.67
2019-04-16T19:38:02.334Z,4.53
2019-04-16T19:40:31.867Z,4.57
2019-04-16T19:43:03.200Z,4.37
2019-04-16T19:45:34.189Z,3.83
2019-04-16T19:48:05.107Z,4.27
2019-04-16T19:50:36.525Z,4.70
2019-04-16T19:53:07.818Z,4.73
2019-04-16T19:55:38.488Z,4.90
2019-04-16T19:58:08.957Z,3.97
2019-04-16T20:00:39.659Z,4.37
2019-04-16T20:03:10.119Z,5.10
2019-04-16T20:05:40.634Z,4.60
2019-04-16T20:08:11.514Z,6.00
2019-04-16T20:10:42.239Z,5.20
2019-04-16T20:13:12.800Z,4.27
2019-04-16T20:15:44.180Z,3.90
2019-04-16T20:18:14.732Z,3.77
2019-04-16T20:20:47.051Z,3.27
2019-04-16T20:23:17.519Z,3.60
2019-04-16T20:25:48.238Z,3.83
2019-04-16T20:28:18.742Z,4.00
2019-04-16T20:30:49.521Z,4.47
2019-04-16T20:33:20.972Z,3.03
2019-04-16T20:35:51.708Z,3.67
2019-04-16T20:38:22.141Z,4.17
2019-04-16T20:40:53.778Z,4.57
2019-04-16T20:43:24.628Z,3.90
2019-04-16T20:45:56.478Z,4.40
2019-04-16T20:48:27.223Z,4.17
2019-04-16T20:50:59.541Z,4.27
2019-04-16T20:53:30.311Z,5.20
2019-04-16T20:56:01.092Z,4.97
2019-04-16T20:58:32.358Z,4.43
2019-04-16T21:01:03.641Z,4.53
2019-04-16T21:03:34.200Z,3.80
2019-04-16T21:06:08.253Z,3.53
2019-04-16T21:08:37.490Z,4.50
2019-04-16T21:11:09.474Z,3.30
2019-04-16T21:13:40.386Z,3.90
2019-04-16T21:16:10.854Z,4.00
2019-04-16T21:18:41.646Z,3.30
2019-04-16T21:21:12.222Z,4.00
2019-04-16T21:23:42.807Z,3.73
2019-04-16T21:26:13.227Z,3.10
2019-04-16T21:29:06.393Z,4.13
2019-04-16T21:31:49.840Z,3.70
2019-04-16T21:34:29.524Z,3.93
2019-04-16T21:37:16.173Z,4.67
2019-04-16T21:39:51.342Z,4.87
2019-04-16T21:42:23.175Z,4.23
2019-04-16T21:44:53.803Z,4.00
2019-04-16T21:47:24.580Z,4.07
2019-04-16T21:49:56.337Z,4.33
2019-04-16T21:52:26.872Z,4.10
2019-04-16T21:55:02.469Z,4.90
2019-04-16T21:57:29.420Z,4.33
2019-04-16T21:59:59.948Z,3.97
2019-04-16T22:02:34.510Z,4.40
2019-04-16T22:05:08.330Z,4.67
2019-04-16T22:07:38.915Z,4.77
2019-04-16T22:10:10.565Z,6.33
2019-04-16T22:12:41.106Z,5.87
2019-04-16T22:15:11.621Z,4.83
2019-04-16T22:17:42.051Z,5.63
2019-04-16T22:20:13.502Z,4.70
2019-04-16T22:22:46.568Z,5.27
2019-04-16T22:25:16.042Z,4.10
2019-04-16T22:27:46.524Z,4.73
2019-04-16T22:30:19.388Z,4.33
2019-04-16T22:32:49.118Z,4.10
2019-04-16T22:35:19.545Z,3.90
2019-04-16T22:37:49.970Z,3.57
2019-04-16T22:40:42.627Z,4.20
2019-04-16T22:43:42.753Z,4.93
2019-04-16T22:46:25.968Z,6.57
2019-04-16T22:48:57.770Z,5.80
2019-04-16T22:51:28.259Z,5.27
2019-04-16T22:53:58.859Z,4.57
2019-04-16T22:56:54.536Z,4.80
2019-04-16T22:59:27.495Z,5.17
2019-04-16T23:01:58.493Z,4.57
2019-04-16T23:04:28.961Z,5.00
2019-04-16T23:06:59.491Z,5.20
2019-04-16T23:09:31.556Z,6.03
2019-04-16T23:12:02.194Z,5.27
2019-04-16T23:14:34.918Z,4.60
2019-04-16T23:17:04.684Z,4.97
2019-04-16T23:19:35.113Z,5.03
2019-04-16T23:22:05.638Z,4.90
2019-04-16T23:24:36.066Z,5.13
2019-04-16T23:27:06.816Z,4.80
2019-04-16T23:29:37.330Z,6.27
2019-04-16T23:32:07.917Z,5.53
2019-04-16T23:34:39.144Z,5.30
2019-04-16T23:37:09.635Z,5.77
2019-04-16T23:39:41.091Z,5.37
2019-04-16T23:42:11.509Z,5.00
2019-04-16T23:45:00.933Z,5.47
2019-04-16T23:47:53.635Z,5.23
2019-04-16T23:50:47.815Z,5.13
2019-04-16T23:53:23.777Z,4.97
2019-04-16T23:56:28.505Z,5.57
2019-04-16T23:59:07.129Z,5.57
